Time;durP1;ratioP1;P1;durP2;ratioP2;P2;SDS_P1;SDS_P2;PMS_P1;PMS_P2;Temp;Humidity;BMP_temperature;BMP_pressure;BME280_temperature;BME280_humidity;BME280_pressure;Samples;Min_cycle;Max_cycle;Signal;HPM_P1;HPM_P2
2023/07/20 00:02:17;;;;;;;3.40;1.40;;;;;;;18.13;52.53;97125.63;5062142;28;20039;-58
2023/07/20 00:04:43;;;;;;;7.13;1.70;;;;;;;18.00;52.92;97127.22;5061300;28;20068;-56
2023/07/20 00:07:10;;;;;;;3.55;1.63;;;;;;;17.90;53.40;97131.81;5061898;28;20040;-56
2023/07/20 00:09:36;;;;;;;4.00;1.35;;;;;;;17.81;53.75;97141.84;5062030;28;20412;-55
2023/07/20 00:12:03;;;;;;;3.97;1.50;;;;;;;17.85;54.05;97136.56;5063014;28;20041;-56
2023/07/20 00:14:31;;;;;;;4.30;1.25;;;;;;;17.68;54.16;97146.22;5059824;28;20056;-58
2023/07/20 00:16:58;;;;;;;5.05;1.50;;;;;;;17.71;54.33;97136.56;5062589;28;20044;-58
2023/07/20 00:19:27;;;;;;;3.90;1.80;;;;;;;17.47;55.23;97135.66;5061307;28;20060;-57
2023/07/20 00:21:54;;;;;;;3.30;1.40;;;;;;;17.38;55.72;97140.22;5060638;28;20059;-58
2023/07/20 00:24:21;;;;;;;3.85;1.38;;;;;;;17.25;56.36;97137.16;5061241;28;20044;-57
2023/07/20 00:26:48;;;;;;;4.90;1.52;;;;;;;17.13;57.00;97142.28;5061581;28;20056;-58
2023/07/20 00:29:15;;;;;;;4.25;1.42;;;;;;;17.22;57.22;97140.50;5060651;28;20078;-59
2023/07/20 00:31:43;;;;;;;4.18;1.52;;;;;;;16.99;57.99;97142.25;5061859;28;20032;-57
2023/07/20 00:34:10;;;;;;;4.05;1.48;;;;;;;16.84;59.31;97133.19;5059001;28;20040;-57
2023/07/20 00:36:36;;;;;;;4.03;1.60;;;;;;;16.73;59.42;97137.22;5060714;28;20155;-58
2023/07/20 00:39:03;;;;;;;4.35;1.40;;;;;;;16.77;59.20;97136.28;5065670;28;20098;-59
2023/07/20 00:41:30;;;;;;;4.00;1.60;;;;;;;16.74;59.28;97136.88;5065040;28;20119;-58
2023/07/20 00:43:56;;;;;;;3.63;1.63;;;;;;;16.59;60.02;97137.94;5065439;28;20048;-58
2023/07/20 00:46:24;;;;;;;4.70;1.70;;;;;;;16.66;59.91;97132.09;5065051;28;20044;-58
2023/07/20 00:48:53;;;;;;;3.47;1.65;;;;;;;16.77;59.23;97147.22;5065589;28;20063;-57
2023/07/20 00:51:22;;;;;;;3.05;1.50;;;;;;;16.57;60.24;97139.34;5065273;28;20111;-55
2023/07/20 00:53:49;;;;;;;5.55;1.60;;;;;;;16.53;60.51;97136.41;5063371;28;20052;-56
2023/07/20 00:56:16;;;;;;;5.68;1.63;;;;;;;16.44;61.47;97143.66;5067008;28;20579;-58
2023/07/20 00:58:44;;;;;;;4.10;1.58;;;;;;;16.42;61.53;97143.94;5061425;28;20040;-58
2023/07/20 01:01:10;;;;;;;4.00;1.70;;;;;;;16.50;61.43;97145.19;5066175;28;20037;-58
2023/07/20 01:03:37;;;;;;;3.70;1.40;;;;;;;16.47;61.28;97149.34;5062874;28;20127;-59
2023/07/20 01:06:10;;;;;;;4.15;1.70;;;;;;;16.45;61.42;97146.09;5063951;28;20436;-58
2023/07/20 01:08:43;;;;;;;4.45;1.70;;;;;;;16.50;61.45;97153.38;5064873;28;20040;-57
2023/07/20 01:11:35;;;;;;;3.95;1.30;;;;;;;16.47;62.05;97154.00;5065942;28;20028;-59
2023/07/20 01:14:03;;;;;;;2.20;1.30;;;;;;;16.54;61.85;97154.41;5062115;28;20080;-58
2023/07/20 01:16:29;;;;;;;3.42;1.60;;;;;;;16.42;62.22;97145.84;5065112;28;20043;-58
2023/07/20 01:18:56;;;;;;;2.97;1.50;;;;;;;16.12;63.75;97143.28;5064716;28;20040;-58
2023/07/20 01:21:51;;;;;;;4.78;1.40;;;;;;;16.03;64.19;97139.59;5065513;28;20120;-57
2023/07/20 01:24:21;;;;;;;5.63;1.65;;;;;;;16.03;64.31;97143.09;5061774;28;20048;-59
2023/07/20 01:26:48;;;;;;;4.30;1.63;;;;;;;15.99;64.58;97137.44;5064463;28;20040;-58
2023/07/20 01:30:01;;;;;;;4.88;1.63;;;;;;;16.03;64.73;97145.84;5064639;28;20595;-59
2023/07/20 01:32:29;;;;;;;5.28;1.92;;;;;;;16.01;64.72;97142.59;5064352;28;20036;-57
2023/07/20 01:34:58;;;;;;;3.15;1.42;;;;;;;15.98;64.84;97138.53;5063825;28;20048;-58
2023/07/20 01:37:29;;;;;;;4.85;1.63;;;;;;;15.96;64.93;97138.00;5066078;28;20047;-58
2023/07/20 01:39:56;;;;;;;5.05;1.42;;;;;;;15.84;65.50;97143.88;5064639;28;20115;-58
2023/07/20 01:42:24;;;;;;;3.90;1.50;;;;;;;15.82;65.92;97142.53;5063295;28;20051;-57
2023/07/20 01:44:52;;;;;;;4.07;1.70;;;;;;;15.82;65.95;97140.59;5062742;28;20044;-56
2023/07/20 01:47:19;;;;;;;5.20;1.88;;;;;;;15.84;65.85;97135.69;5066162;28;20051;-58
2023/07/20 01:49:46;;;;;;;4.25;1.42;;;;;;;15.97;65.20;97134.19;5063194;28;20044;-58
2023/07/20 01:52:12;;;;;;;3.97;1.70;;;;;;;15.93;65.81;97133.13;5062523;28;20048;-58
2023/07/20 01:54:39;;;;;;;6.55;1.95;;;;;;;15.86;66.22;97132.66;5063612;28;20064;-58
2023/07/20 01:57:05;;;;;;;3.15;1.50;;;;;;;15.84;66.00;97135.69;5063251;28;20098;-58
2023/07/20 01:59:32;;;;;;;4.38;1.80;;;;;;;15.73;66.89;97140.44;5060914;28;20055;-56
2023/07/20 02:01:58;;;;;;;4.20;1.58;;;;;;;15.68;67.31;97140.53;5061984;28;20064;-58
2023/07/20 02:04:25;;;;;;;7.18;1.52;;;;;;;15.83;66.87;97144.16;5061682;28;20038;-58
2023/07/20 02:06:51;;;;;;;4.93;1.83;;;;;;;15.74;67.32;97135.81;5064383;28;20091;-56
2023/07/20 02:09:18;;;;;;;3.30;1.50;;;;;;;15.71;67.34;97139.91;5062409;28;20488;-56
2023/07/20 02:11:44;;;;;;;3.42;1.70;;;;;;;15.73;67.18;97132.25;5063440;28;20424;-57
2023/07/20 02:14:11;;;;;;;5.97;1.30;;;;;;;15.66;67.71;97128.28;5063246;28;20036;-57
2023/07/20 02:16:38;;;;;;;4.63;1.77;;;;;;;15.54;68.58;97134.13;5062885;28;20040;-56
2023/07/20 02:19:06;;;;;;;2.78;1.60;;;;;;;15.57;68.42;97131.63;5065777;28;20500;-58
2023/07/20 02:21:33;;;;;;;4.43;1.73;;;;;;;15.58;68.31;97133.25;5063020;28;20159;-58
2023/07/20 02:24:00;;;;;;;4.28;1.63;;;;;;;15.48;68.95;97136.91;5063850;28;20044;-57
2023/07/20 02:26:26;;;;;;;4.40;1.42;;;;;;;15.52;68.46;97136.34;5062613;28;20503;-58
2023/07/20 02:28:53;;;;;;;4.25;1.67;;;;;;;15.56;68.55;97137.38;5063494;28;20059;-56
2023/07/20 02:31:20;;;;;;;1.95;1.10;;;;;;;15.48;68.84;97136.09;5062794;28;20040;-57
2023/07/20 02:33:46;;;;;;;2.80;1.48;;;;;;;15.52;68.63;97141.78;5062579;28;20036;-54
2023/07/20 02:36:13;;;;;;;5.45;1.63;;;;;;;15.43;69.34;97136.97;5061256;28;20041;-58
2023/07/20 02:38:39;;;;;;;3.42;1.52;;;;;;;15.36;70.11;97133.75;5063158;28;20047;-57
2023/07/20 02:41:06;;;;;;;4.38;1.50;;;;;;;15.27;70.46;97140.97;5062716;28;20324;-59
2023/07/20 02:43:32;;;;;;;4.05;1.50;;;;;;;15.27;69.76;97147.25;5061098;28;20047;-57
2023/07/20 02:45:59;;;;;;;4.35;1.60;;;;;;;15.19;70.78;97153.31;5062526;28;20037;-56
2023/07/20 02:48:25;;;;;;;2.47;1.08;;;;;;;15.28;69.78;97148.03;5063022;28;20128;-56
2023/07/20 02:50:52;;;;;;;3.05;1.52;;;;;;;15.11;71.48;97148.47;5063223;28;20049;-56
2023/07/20 02:53:18;;;;;;;3.20;1.50;;;;;;;14.97;71.80;97146.44;5063398;28;20044;-58
2023/07/20 02:55:45;;;;;;;3.60;1.60;;;;;;;14.66;73.90;97152.91;5062599;28;20053;-54
2023/07/20 02:58:12;;;;;;;3.58;1.58;;;;;;;14.60;74.25;97154.06;5064495;28;20040;-58
2023/07/20 03:00:39;;;;;;;3.60;1.65;;;;;;;14.53;74.57;97156.28;5060751;28;20419;-57
2023/07/20 03:03:09;;;;;;;4.60;2.00;;;;;;;14.50;74.93;97154.94;5061104;28;20097;-56
2023/07/20 03:05:39;;;;;;;5.53;1.80;;;;;;;14.43;75.02;97152.53;5061488;28;20036;-58
2023/07/20 03:08:06;;;;;;;4.57;1.98;;;;;;;14.24;77.05;97159.72;5060835;28;20446;-49
2023/07/20 03:10:32;;;;;;;3.50;1.88;;;;;;;14.07;77.64;97163.63;5061419;28;20040;-52
2023/07/20 03:12:59;;;;;;;4.47;1.88;;;;;;;13.92;78.82;97159.06;5062451;28;20133;-51
2023/07/20 03:15:26;;;;;;;3.55;1.83;;;;;;;13.90;79.22;97158.53;5060885;28;20041;-49
2023/07/20 03:17:52;;;;;;;4.72;1.92;;;;;;;13.69;81.00;97161.34;5063652;28;20040;-48
2023/07/20 03:20:19;;;;;;;2.50;1.48;;;;;;;13.58;81.82;97167.88;5075059;28;20040;-51
2023/07/20 03:22:46;;;;;;;6.07;2.00;;;;;;;13.60;82.06;97163.78;5057431;28;20053;-49
2023/07/20 03:25:13;;;;;;;3.05;1.40;;;;;;;13.65;81.87;97160.25;5060516;28;20054;-52
2023/07/20 03:27:40;;;;;;;5.05;1.77;;;;;;;13.61;81.59;97162.72;5062330;28;20043;-51
2023/07/20 03:30:09;;;;;;;4.72;2.08;;;;;;;13.59;82.39;97159.47;5060883;28;20223;-50
2023/07/20 03:32:36;;;;;;;5.18;2.08;;;;;;;13.61;81.92;97165.44;5061109;28;20499;-48
2023/07/20 03:35:02;;;;;;;4.25;1.83;;;;;;;13.71;81.86;97164.56;5060917;28;20094;-48
2023/07/20 03:37:29;;;;;;;5.45;2.35;;;;;;;13.96;79.86;97167.50;5061899;28;20070;-51
2023/07/20 03:39:55;;;;;;;5.47;1.80;;;;;;;13.97;80.30;97169.91;5060279;28;20047;-51
2023/07/20 03:42:23;;;;;;;3.70;1.60;;;;;;;13.83;81.25;97175.16;5058478;28;20120;-50
2023/07/20 03:44:50;;;;;;;5.97;2.22;;;;;;;13.73;81.87;97170.56;5057154;28;20870;-52
2023/07/20 03:47:17;;;;;;;4.25;1.95;;;;;;;13.44;83.36;97170.34;5059191;28;20049;-50
2023/07/20 03:49:43;;;;;;;5.63;2.10;;;;;;;13.35;83.58;97173.63;5057439;28;20052;-52
2023/07/20 03:52:10;;;;;;;4.38;1.95;;;;;;;13.18;85.78;97175.81;5060997;28;20040;-52
2023/07/20 03:54:36;;;;;;;5.68;1.95;;;;;;;13.23;85.78;97179.34;5058741;28;20071;-50
2023/07/20 03:57:03;;;;;;;6.78;2.38;;;;;;;13.24;85.24;97183.69;5062209;28;20095;-48
2023/07/20 03:59:30;;;;;;;4.97;2.20;;;;;;;13.34;85.15;97180.16;5058777;28;20130;-48
2023/07/20 04:01:56;;;;;;;3.97;1.90;;;;;;;13.33;84.43;97181.25;5062100;28;20044;-49
2023/07/20 04:04:23;;;;;;;6.78;1.90;;;;;;;13.12;86.17;97177.75;5059069;28;20115;-47
2023/07/20 04:06:49;;;;;;;5.35;2.28;;;;;;;13.10;86.27;97180.75;5060440;28;20090;-48
2023/07/20 04:09:16;;;;;;;4.70;2.00;;;;;;;13.16;86.15;97184.25;5061751;28;20561;-51
2023/07/20 04:11:42;;;;;;;4.60;2.50;;;;;;;13.27;86.09;97188.59;5063048;28;20036;-51
2023/07/20 04:14:09;;;;;;;5.10;2.03;;;;;;;13.25;86.97;97189.97;5066378;28;20392;-52
2023/07/20 04:16:35;;;;;;;4.18;1.98;;;;;;;13.31;86.04;97194.31;5063605;28;20041;-51
2023/07/20 04:19:02;;;;;;;4.55;2.13;;;;;;;13.33;86.72;97194.03;5066197;28;20036;-50
2023/07/20 04:21:28;;;;;;;7.25;2.17;;;;;;;13.46;86.01;97192.66;5064150;28;20040;-50
2023/07/20 04:23:55;;;;;;;4.93;2.20;;;;;;;13.44;86.09;97197.53;5064368;28;20041;-52
2023/07/20 04:26:23;;;;;;;4.57;2.20;;;;;;;13.42;86.03;97194.28;5064489;28;20040;-53
2023/07/20 04:28:50;;;;;;;5.15;2.33;;;;;;;13.57;85.42;97194.28;5064386;28;20111;-53
2023/07/20 04:31:33;;;;;;;6.80;2.45;;;;;;;13.60;85.87;97196.44;5063954;28;20075;-50
2023/07/20 04:33:59;;;;;;;8.27;2.55;;;;;;;13.68;85.53;97194.25;5062273;28;20123;-49
2023/07/20 04:36:26;;;;;;;5.40;2.17;;;;;;;13.76;85.03;97186.34;5061608;28;20040;-50
2023/07/20 04:38:53;;;;;;;5.20;1.80;;;;;;;13.70;85.05;97192.88;5060988;28;20047;-49
2023/07/20 04:41:21;;;;;;;4.43;1.90;;;;;;;13.71;85.04;97193.72;5061855;28;20045;-49
2023/07/20 04:43:50;;;;;;;4.10;1.73;;;;;;;13.88;84.25;97196.91;5060835;28;20126;-53
2023/07/20 04:46:24;;;;;;;3.72;2.08;;;;;;;13.91;84.21;97190.91;5062061;28;20454;-49
2023/07/20 04:48:51;;;;;;;4.55;2.08;;;;;;;14.07;84.55;97196.28;5061137;28;20056;-48
2023/07/20 04:51:20;;;;;;;5.68;2.05;;;;;;;14.02;83.68;97194.41;5061403;28;20086;-53
2023/07/20 04:53:49;;;;;;;5.63;2.08;;;;;;;14.07;84.48;97198.22;5076617;28;20079;-57
2023/07/20 04:56:16;;;;;;;5.53;2.30;;;;;;;14.16;83.92;97193.81;5063443;28;20059;-55
2023/07/20 04:58:43;;;;;;;6.20;1.85;;;;;;;14.35;82.18;97191.25;5061210;28;20056;-57
2023/07/20 05:01:09;;;;;;;4.65;1.88;;;;;;;14.61;81.47;97202.00;5061609;28;20036;-57
2023/07/20 05:03:36;;;;;;;5.78;2.15;;;;;;;14.74;80.52;97195.06;5060052;28;20052;-56
2023/07/20 05:06:03;;;;;;;4.80;1.52;;;;;;;14.84;79.75;97183.31;5061404;28;20040;-57
2023/07/20 05:08:30;;;;;;;5.53;1.98;;;;;;;14.93;79.93;97187.06;5062313;28;20064;-58
2023/07/20 05:10:57;;;;;;;4.95;1.80;;;;;;;14.89;79.67;97185.22;5061159;28;20094;-55
2023/07/20 05:13:24;;;;;;;6.75;1.88;;;;;;;14.97;79.66;97194.69;5061780;28;20166;-58
2023/07/20 05:15:52;;;;;;;3.78;1.75;;;;;;;14.97;80.04;97194.69;5060838;28;20508;-57
2023/07/20 05:18:20;;;;;;;4.68;2.00;;;;;;;15.02;79.68;97192.72;5061535;28;20076;-58
2023/07/20 05:20:48;;;;;;;5.32;2.17;;;;;;;15.13;79.67;97200.81;5060759;28;20827;-57
2023/07/20 05:23:18;;;;;;;4.68;2.10;;;;;;;15.23;79.48;97191.72;5060946;28;20048;-58
2023/07/20 05:25:44;;;;;;;4.85;1.85;;;;;;;15.41;78.79;97196.44;5060642;28;20563;-58
2023/07/20 05:28:11;;;;;;;7.70;2.10;;;;;;;15.50;77.72;97193.91;5063199;28;20052;-57
2023/07/20 05:30:38;;;;;;;3.33;1.77;;;;;;;15.78;77.03;97198.81;5062126;28;20048;-56
2023/07/20 05:33:04;;;;;;;4.63;1.80;;;;;;;15.99;75.39;97194.78;5062106;28;20126;-59
2023/07/20 05:35:31;;;;;;;4.03;1.50;;;;;;;16.17;75.20;97194.28;5061113;28;20051;-58
2023/07/20 05:37:57;;;;;;;3.53;1.70;;;;;;;16.28;74.82;97193.03;5064832;28;20036;-56
2023/07/20 05:40:24;;;;;;;5.55;2.10;;;;;;;16.45;74.87;97180.78;5060016;28;20492;-59
2023/07/20 05:42:51;;;;;;;3.70;2.03;;;;;;;16.52;73.83;97192.19;5061770;28;20044;-57
2023/07/20 05:45:18;;;;;;;5.38;1.90;;;;;;;16.58;73.18;97193.72;5061589;28;20044;-57
2023/07/20 05:47:46;;;;;;;3.33;1.75;;;;;;;16.66;72.33;97188.69;5062186;28;20044;-57
2023/07/20 05:50:12;;;;;;;5.00;1.90;;;;;;;16.74;71.57;97183.34;5063820;28;20052;-55
2023/07/20 05:52:40;;;;;;;3.58;1.63;;;;;;;16.87;71.48;97191.91;5061028;28;20536;-57
2023/07/20 05:55:07;;;;;;;5.50;2.10;;;;;;;16.85;71.14;97183.22;5062092;28;20047;-56
2023/07/20 05:57:35;;;;;;;4.10;1.88;;;;;;;16.92;71.17;97191.03;5060194;28;20116;-56
2023/07/20 06:00:02;;;;;;;6.32;1.65;;;;;;;17.05;70.80;97189.47;5064795;28;20525;-57
2023/07/20 06:02:37;;;;;;;6.28;1.77;;;;;;;17.10;70.86;97186.69;5062399;28;20045;-41
2023/07/20 06:05:04;;;;;;;3.65;1.63;;;;;;;17.21;71.81;97190.84;5062766;28;20127;-42
2023/07/20 06:07:31;;;;;;;7.80;1.90;;;;;;;17.34;70.08;97197.47;5061410;28;20056;-41
2023/07/20 06:09:59;;;;;;;4.22;1.58;;;;;;;17.32;69.33;97201.63;5060979;28;20525;-43
2023/07/20 06:12:25;;;;;;;3.53;1.95;;;;;;;17.57;69.42;97203.09;5061406;28;20462;-42
2023/07/20 06:14:52;;;;;;;4.07;1.60;;;;;;;17.64;67.67;97205.41;5061854;28;20127;-43
2023/07/20 06:17:18;;;;;;;10.95;2.75;;;;;;;17.75;67.32;97203.31;5061217;28;20048;-40
2023/07/20 06:19:45;;;;;;;5.82;1.52;;;;;;;17.88;67.56;97204.44;5059997;28;20037;-40
2023/07/20 06:22:12;;;;;;;5.40;1.40;;;;;;;18.12;67.04;97201.50;5062137;28;20143;-42
2023/07/20 06:24:38;;;;;;;4.60;1.92;;;;;;;18.15;66.72;97202.81;5061935;28;20047;-42
2023/07/20 06:27:05;;;;;;;4.43;1.85;;;;;;;18.13;66.37;97194.13;5061748;28;20128;-44
2023/07/20 06:29:32;;;;;;;4.90;1.80;;;;;;;18.40;65.22;97201.47;5061502;28;20106;-41
2023/07/20 06:31:58;;;;;;;4.20;1.25;;;;;;;18.54;64.19;97198.69;5060008;28;20515;-43
2023/07/20 06:34:25;;;;;;;7.45;1.98;;;;;;;18.45;63.76;97197.78;5060027;28;20044;-43
2023/07/20 06:36:51;;;;;;;4.63;1.80;;;;;;;18.63;63.47;97196.03;5060481;28;20041;-44
2023/07/20 06:39:18;;;;;;;4.75;1.73;;;;;;;18.53;63.12;97199.00;5061417;28;20051;-42
2023/07/20 06:41:47;;;;;;;3.58;1.80;;;;;;;18.53;63.52;97191.59;5061389;28;20040;-43
2023/07/20 06:44:14;;;;;;;5.65;1.80;;;;;;;18.62;63.98;97191.69;5060869;28;20044;-43
2023/07/20 06:46:40;;;;;;;4.25;1.60;;;;;;;18.76;62.62;97188.06;5059721;28;20072;-43
2023/07/20 06:49:10;;;;;;;6.50;2.45;;;;;;;18.76;62.34;97191.59;5060783;28;20036;-41
2023/07/20 06:51:39;;;;;;;5.93;2.03;;;;;;;18.96;60.72;97192.25;5061574;28;20040;-40
2023/07/20 06:54:06;;;;;;;9.63;2.00;;;;;;;18.79;62.04;97187.47;5059688;28;20052;-41
2023/07/20 06:56:32;;;;;;;3.88;1.52;;;;;;;18.60;61.80;97182.94;5060526;28;20150;-42
2023/07/20 06:59:00;;;;;;;2.80;1.48;;;;;;;18.90;62.56;97188.81;5061551;28;20040;-42
2023/07/20 07:01:26;;;;;;;4.28;1.92;;;;;;;18.96;61.97;97178.53;5056838;28;20656;-58
2023/07/20 07:03:53;;;;;;;5.75;2.13;;;;;;;18.61;62.51;97181.81;5057133;28;20064;-54
2023/07/20 07:06:22;;;;;;;3.70;1.60;;;;;;;18.76;62.65;97185.34;5059732;28;20071;-55
2023/07/20 07:08:50;;;;;;;4.28;1.80;;;;;;;18.95;62.17;97185.16;5061321;28;20569;-55
2023/07/20 07:11:16;;;;;;;5.07;1.80;;;;;;;19.23;60.79;97182.28;5051644;28;20048;-55
2023/07/20 07:13:43;;;;;;;4.53;1.63;;;;;;;19.23;60.97;97187.78;5059284;28;20040;-54
2023/07/20 07:16:10;;;;;;;3.10;1.60;;;;;;;19.27;60.87;97187.97;5060693;28;20059;-57
2023/07/20 07:18:36;;;;;;;3.40;1.58;;;;;;;19.41;60.41;97193.34;5056928;28;20049;-56
2023/07/20 07:21:03;;;;;;;5.05;1.80;;;;;;;19.44;59.52;97184.50;5060303;28;20047;-56
2023/07/20 07:23:29;;;;;;;3.95;1.80;;;;;;;19.26;60.63;97178.91;5061138;28;20044;-53
2023/07/20 07:25:56;;;;;;;6.70;1.77;;;;;;;19.10;60.52;97184.00;5060615;28;20522;-54
2023/07/20 07:28:22;;;;;;;6.13;1.80;;;;;;;18.87;60.78;97183.16;5062446;28;20527;-56
2023/07/20 07:30:49;;;;;;;3.47;1.75;;;;;;;18.77;61.87;97186.94;5059760;28;20124;-58
2023/07/20 07:33:15;;;;;;;4.55;1.58;;;;;;;18.93;61.01;97187.38;5059927;28;20124;-57
2023/07/20 07:35:42;;;;;;;7.43;1.90;;;;;;;19.14;59.98;97184.16;5059814;28;20052;-55
2023/07/20 07:38:09;;;;;;;5.18;1.67;;;;;;;19.28;60.03;97178.59;5060516;28;20071;-54
2023/07/20 07:40:55;;;;;;;4.55;1.60;;;;;;;19.39;60.18;97185.47;5059798;28;20557;-57
2023/07/20 07:43:22;;;;;;;4.25;1.95;;;;;;;19.24;59.50;97181.19;5059711;28;20044;-57
2023/07/20 07:45:48;;;;;;;6.13;1.55;;;;;;;19.29;60.12;97189.28;5061987;28;20123;-55
2023/07/20 07:48:15;;;;;;;3.13;1.70;;;;;;;19.25;60.18;97188.28;5064750;28;20048;-55
2023/07/20 07:50:42;;;;;;;3.88;1.92;;;;;;;19.15;62.27;97174.81;5063885;28;20055;-58
2023/07/20 07:53:09;;;;;;;7.65;1.85;;;;;;;19.11;61.80;97180.13;5064287;28;20047;-56
2023/07/20 07:55:36;;;;;;;4.00;1.80;;;;;;;19.05;60.90;97184.09;5062435;28;20117;-54
2023/07/20 07:58:02;;;;;;;4.63;1.83;;;;;;;19.07;60.60;97177.19;5064692;28;20101;-56
2023/07/20 08:00:29;;;;;;;4.05;1.52;;;;;;;19.09;60.50;97182.38;5064121;28;20063;-55
2023/07/20 08:02:56;;;;;;;7.13;1.80;;;;;;;19.30;60.90;97184.56;5063343;28;20037;-56
2023/07/20 08:05:22;;;;;;;5.15;1.80;;;;;;;19.50;60.83;97180.50;5063229;28;20143;-52
2023/07/20 08:07:49;;;;;;;3.97;1.58;;;;;;;19.46;58.37;97193.25;5066272;28;20122;-58
2023/07/20 08:10:15;;;;;;;3.97;1.60;;;;;;;19.80;58.64;97182.72;5067120;28;20123;-55
2023/07/20 08:12:43;;;;;;;3.90;1.50;;;;;;;20.00;57.35;97179.44;5054933;28;20525;-54
2023/07/20 08:15:11;;;;;;;3.58;1.70;;;;;;;20.19;55.48;97188.53;5036171;28;20056;-53
2023/07/20 08:17:38;;;;;;;3.40;1.50;;;;;;;20.13;54.65;97188.66;5043538;28;20044;-55
2023/07/20 08:20:06;;;;;;;3.13;1.50;;;;;;;19.94;56.41;97186.16;5063703;28;20600;-56
2023/07/20 08:22:33;;;;;;;5.10;2.05;;;;;;;19.94;56.35;97171.63;5063441;28;20402;-61
2023/07/20 08:25:00;;;;;;;3.88;1.67;;;;;;;20.17;55.86;97180.59;5060591;28;20465;-61
2023/07/20 08:27:26;;;;;;;4.55;1.58;;;;;;;20.36;54.49;97180.31;5063694;28;20052;-55
2023/07/20 08:29:53;;;;;;;4.05;1.58;;;;;;;20.43;53.88;97185.34;5063403;28;20075;-56
2023/07/20 08:32:19;;;;;;;4.47;1.70;;;;;;;20.19;54.28;97183.03;5063288;28;20055;-56
2023/07/20 08:34:46;;;;;;;3.20;1.30;;;;;;;20.25;54.34;97190.00;5062632;28;20070;-59
2023/07/20 08:37:12;;;;;;;4.57;1.63;;;;;;;20.27;55.03;97185.78;5064685;28;20048;-59
2023/07/20 08:39:39;;;;;;;3.00;1.48;;;;;;;19.96;55.71;97181.16;5062865;28;20151;-59
2023/07/20 08:42:06;;;;;;;3.58;1.77;;;;;;;19.63;56.94;97187.00;5063034;28;20036;-54
2023/07/20 08:44:33;;;;;;;5.05;2.05;;;;;;;19.52;57.58;97191.97;5062865;28;20056;-55
2023/07/20 08:47:05;;;;;;;3.60;2.03;;;;;;;19.68;57.41;97195.09;5062697;28;20090;-56
2023/07/20 08:49:32;;;;;;;3.42;1.75;;;;;;;19.92;55.98;97195.84;5062493;28;20509;-58
2023/07/20 08:51:59;;;;;;;6.30;1.92;;;;;;;20.07;55.01;97187.22;5064847;28;20043;-59
2023/07/20 08:54:33;;;;;;;3.45;1.65;;;;;;;20.36;54.91;97190.50;5060880;28;20396;-57
2023/07/20 08:57:05;;;;;;;3.85;1.70;;;;;;;20.44;54.41;97178.69;5060474;28;20040;-56
2023/07/20 08:59:32;;;;;;;2.63;1.27;;;;;;;20.64;54.97;97177.25;5056220;28;20430;-57
2023/07/20 09:01:59;;;;;;;5.72;1.85;;;;;;;20.89;52.06;97177.59;5064350;28;20042;-57
2023/07/20 09:04:26;;;;;;;4.65;1.02;;;;;;;20.90;49.16;97183.94;5062721;28;20071;-56
2023/07/20 09:06:53;;;;;;;6.28;1.58;;;;;;;20.82;48.89;97188.25;5065083;28;20530;-58
2023/07/20 09:09:19;;;;;;;2.45;1.13;;;;;;;20.77;48.93;97178.25;5064312;28;20127;-52
2023/07/20 09:11:48;;;;;;;5.78;1.40;;;;;;;20.37;50.02;97178.38;5064932;28;20119;-56
2023/07/20 09:14:15;;;;;;;3.05;1.20;;;;;;;20.58;49.76;97175.81;5063441;28;20040;-56
2023/07/20 09:16:54;;;;;;;3.17;1.17;;;;;;;20.42;49.46;97182.91;5061569;28;20044;-55
2023/07/20 09:19:21;;;;;;;3.13;1.20;;;;;;;20.62;48.82;97176.78;5060899;28;20045;-55
2023/07/20 09:21:49;;;;;;;4.25;1.20;;;;;;;20.77;48.26;97181.00;5062277;28;20043;-55
2023/07/20 09:24:18;;;;;;;5.32;1.00;;;;;;;20.71;46.82;97176.78;5063476;28;20041;-55
2023/07/20 09:26:48;;;;;;;3.95;1.05;;;;;;;20.86;46.85;97186.47;5061965;28;20060;-57
2023/07/20 09:29:18;;;;;;;3.75;1.30;;;;;;;20.92;45.11;97176.97;5061021;28;20052;-57
2023/07/20 09:32:02;;;;;;;3.20;1.20;;;;;;;20.65;44.82;97176.13;5059779;28;20048;-57
2023/07/20 09:34:32;;;;;;;2.80;1.00;;;;;;;20.81;44.88;97167.38;5060164;28;20044;-55
2023/07/20 09:37:02;;;;;;;3.90;1.20;;;;;;;21.30;45.49;97180.94;5062331;28;20052;-55
2023/07/20 09:39:29;;;;;;;2.65;1.17;;;;;;;21.09;45.68;97180.84;5060080;28;20052;-58
2023/07/20 09:42:01;;;;;;;3.33;1.35;;;;;;;21.18;46.62;97176.13;5060879;28;20044;-58
2023/07/20 09:44:30;;;;;;;4.07;1.20;;;;;;;21.47;45.45;97172.94;5061275;28;20090;-57
2023/07/20 09:47:03;;;;;;;3.40;1.25;;;;;;;21.75;44.63;97167.06;5063025;28;20037;-55
2023/07/20 09:49:31;;;;;;;2.15;0.90;;;;;;;21.69;43.52;97172.72;5061670;28;20143;-58
2023/07/20 09:52:18;;;;;;;3.63;1.17;;;;;;;21.66;43.80;97175.31;5062397;28;20048;-58
2023/07/20 09:55:09;;;;;;;2.65;1.05;;;;;;;21.54;44.19;97173.25;5059702;28;20076;-59
2023/07/20 09:57:35;;;;;;;4.20;1.13;;;;;;;21.59;44.63;97181.34;5061593;28;20131;-58
2023/07/20 10:00:10;;;;;;;5.95;2.03;;;;;;;21.64;42.38;97178.41;5062665;28;20044;-58
2023/07/20 10:02:45;;;;;;;2.63;0.90;;;;;;;21.73;41.39;97166.56;5058973;28;20032;-59
2023/07/20 10:05:14;;;;;;;3.15;1.02;;;;;;;21.47;42.20;97176.53;5060658;28;20048;-59
2023/07/20 10:07:50;;;;;;;2.38;0.93;;;;;;;21.67;40.64;97172.25;5062640;28;20044;-58
2023/07/20 10:10:40;;;;;;;3.55;1.08;;;;;;;21.72;39.48;97165.75;5061253;28;20048;-59
2023/07/20 10:13:13;;;;;;;3.47;0.93;;;;;;;21.79;40.61;97166.06;5062771;28;20036;-58
2023/07/20 10:15:46;;;;;;;3.65;1.08;;;;;;;21.86;39.90;97168.31;5059779;28;20060;-58
2023/07/20 10:18:23;;;;;;;3.65;1.05;;;;;;;21.85;36.99;97172.19;5060636;28;20102;-58
2023/07/20 10:20:51;;;;;;;4.78;1.10;;;;;;;21.89;37.50;97169.59;5060728;28;20466;-53
2023/07/20 10:23:22;;;;;;;2.17;0.63;;;;;;;21.82;37.99;97170.91;5060909;28;20044;-56
2023/07/20 10:25:50;;;;;;;3.47;1.23;;;;;;;21.92;38.26;97166.16;5059881;28;20681;-59
2023/07/20 10:28:17;;;;;;;3.55;1.15;;;;;;;21.80;39.40;97162.19;5060364;28;20052;-60
2023/07/20 10:30:44;;;;;;;2.42;1.17;;;;;;;22.24;39.96;97149.28;5060002;28;20105;-59
2023/07/20 10:33:11;;;;;;;4.75;1.10;;;;;;;22.36;39.25;97152.09;5061087;28;20048;-58
2023/07/20 10:35:56;;;;;;;2.75;1.33;;;;;;;22.03;42.07;97152.81;5060019;28;20047;-57
2023/07/20 10:38:41;;;;;;;1.95;0.90;;;;;;;22.21;41.81;97145.25;5062300;28;20045;-57
2023/07/20 10:41:21;;;;;;;3.28;1.17;;;;;;;22.34;42.18;97149.69;5061410;28;20099;-60
2023/07/20 10:43:49;;;;;;;2.30;1.20;;;;;;;22.41;41.14;97142.84;5058433;28;20055;-56
2023/07/20 10:46:43;;;;;;;2.10;1.08;;;;;;;22.62;39.09;97142.84;5062455;28;20055;-59
2023/07/20 10:49:11;;;;;;;3.47;1.10;;;;;;;22.42;39.08;97145.25;5061020;28;20102;-60
2023/07/20 10:51:43;;;;;;;4.38;1.27;;;;;;;22.54;39.81;97147.28;5060434;28;20818;-57
2023/07/20 10:54:15;;;;;;;3.65;1.20;;;;;;;22.63;39.04;97130.69;5058281;28;20048;-59
2023/07/20 10:56:43;;;;;;;2.10;1.20;;;;;;;22.55;38.72;97131.56;5060318;28;20713;-57
2023/07/20 10:59:22;;;;;;;4.30;1.67;;;;;;;22.45;39.49;97130.78;5061835;28;20044;-58
2023/07/20 11:01:55;;;;;;;2.15;0.90;;;;;;;22.68;38.06;97130.47;5060927;28;20036;-57
2023/07/20 11:04:42;;;;;;;4.22;0.80;;;;;;;22.66;38.52;97131.97;5059900;28;20041;-58
2023/07/20 11:07:09;;;;;;;1.83;0.70;;;;;;;22.69;35.91;97128.50;5059931;28;20131;-55
2023/07/20 11:09:38;;;;;;;1.80;0.93;;;;;;;22.35;37.29;97134.78;5059793;28;20044;-56
2023/07/20 11:12:14;;;;;;;1.77;0.80;;;;;;;22.50;38.09;97134.47;5059797;28;20044;-56
2023/07/20 11:14:42;;;;;;;1.92;0.90;;;;;;;22.78;37.18;97134.78;5059114;28;20040;-56
2023/07/20 11:17:14;;;;;;;2.70;1.00;;;;;;;22.92;35.98;97137.22;5060941;28;20058;-58
2023/07/20 11:19:41;;;;;;;1.65;0.90;;;;;;;22.94;36.07;97132.19;5058554;28;20048;-59
2023/07/20 11:22:11;;;;;;;3.72;0.88;;;;;;;23.21;36.08;97129.13;5060780;28;20061;-59
2023/07/20 11:24:39;;;;;;;1.98;0.80;;;;;;;22.99;34.52;97143.00;5058079;28;20673;-58
2023/07/20 11:27:06;;;;;;;2.10;0.80;;;;;;;22.92;34.50;97126.19;5060137;28;20064;-57
2023/07/20 11:29:37;;;;;;;1.65;0.60;;;;;;;22.91;35.70;97127.34;5059825;28;20564;-61
2023/07/20 11:32:04;;;;;;;1.77;0.95;;;;;;;23.04;35.66;97135.66;5062210;28;20074;-58
2023/07/20 11:34:33;;;;;;;1.30;0.90;;;;;;;23.29;36.97;97121.94;5059172;28;20734;-54
2023/07/20 11:37:00;;;;;;;2.47;1.08;;;;;;;23.27;37.60;97113.97;5060304;28;20798;-56
2023/07/20 11:39:30;;;;;;;2.88;0.93;;;;;;;23.32;38.45;97108.22;5058219;28;20110;-58
2023/07/20 11:41:57;;;;;;;3.17;1.60;;;;;;;22.58;36.41;97114.31;5059550;28;21025;-56